sensor_id;sensor_type;location;lat;lon;timestamp;temperature;humidity
29413;DHT22;16389;50.126;8.450;2023-06-14T00:00:47;19.90;62.40
29413;DHT22;16389;50.126;8.450;2023-06-14T00:03:14;19.90;62.40
29413;DHT22;16389;50.126;8.450;2023-06-14T00:05:43;19.90;62.70
29413;DHT22;16389;50.126;8.450;2023-06-14T00:08:13;19.90;61.80
29413;DHT22;16389;50.126;8.450;2023-06-14T00:10:39;19.80;62.30
29413;DHT22;16389;50.126;8.450;2023-06-14T00:13:08;19.80;62.00
29413;DHT22;16389;50.126;8.450;2023-06-14T00:15:34;19.80;61.90
29413;DHT22;16389;50.126;8.450;2023-06-14T00:18:00;19.70;62.70
29413;DHT22;16389;50.126;8.450;2023-06-14T00:20:29;19.70;62.70
29413;DHT22;16389;50.126;8.450;2023-06-14T00:22:56;19.70;62.90
29413;DHT22;16389;50.126;8.450;2023-06-14T00:25:24;19.70;63.00
29413;DHT22;16389;50.126;8.450;2023-06-14T00:27:54;19.60;62.70
29413;DHT22;16389;50.126;8.450;2023-06-14T00:30:20;19.60;62.20
29413;DHT22;16389;50.126;8.450;2023-06-14T00:32:46;19.60;62.20
29413;DHT22;16389;50.126;8.450;2023-06-14T00:35:12;19.60;62.90
29413;DHT22;16389;50.126;8.450;2023-06-14T00:37:38;19.50;62.30
29413;DHT22;16389;50.126;8.450;2023-06-14T00:40:05;19.60;62.10
29413;DHT22;16389;50.126;8.450;2023-06-14T00:42:31;19.50;62.90
29413;DHT22;16389;50.126;8.450;2023-06-14T00:44:57;19.50;62.70
29413;DHT22;16389;50.126;8.450;2023-06-14T00:47:23;19.50;63.80
29413;DHT22;16389;50.126;8.450;2023-06-14T00:49:50;19.50;63.70
29413;DHT22;16389;50.126;8.450;2023-06-14T00:52:19;19.40;63.60
29413;DHT22;16389;50.126;8.450;2023-06-14T00:54:45;19.40;63.30
29413;DHT22;16389;50.126;8.450;2023-06-14T00:57:11;19.40;63.20
29413;DHT22;16389;50.126;8.450;2023-06-14T00:59:45;19.30;64.00
29413;DHT22;16389;50.126;8.450;2023-06-14T01:02:11;19.40;64.50
29413;DHT22;16389;50.126;8.450;2023-06-14T01:04:38;19.30;63.90
29413;DHT22;16389;50.126;8.450;2023-06-14T01:15:45;19.20;64.20
29413;DHT22;16389;50.126;8.450;2023-06-14T01:18:12;19.20;65.20
29413;DHT22;16389;50.126;8.450;2023-06-14T01:20:46;19.10;65.00
29413;DHT22;16389;50.126;8.450;2023-06-14T01:23:24;19.10;65.60
29413;DHT22;16389;50.126;8.450;2023-06-14T01:25:50;19.10;65.70
29413;DHT22;16389;50.126;8.450;2023-06-14T01:28:19;19.00;65.80
29413;DHT22;16389;50.126;8.450;2023-06-14T01:30:50;19.00;65.60
29413;DHT22;16389;50.126;8.450;2023-06-14T01:33:26;18.90;65.30
29413;DHT22;16389;50.126;8.450;2023-06-14T01:35:53;18.90;66.20
29413;DHT22;16389;50.126;8.450;2023-06-14T01:38:23;18.80;65.90
29413;DHT22;16389;50.126;8.450;2023-06-14T01:40:50;18.80;66.00
29413;DHT22;16389;50.126;8.450;2023-06-14T01:43:18;18.80;66.30
29413;DHT22;16389;50.126;8.450;2023-06-14T01:45:46;18.80;65.70
29413;DHT22;16389;50.126;8.450;2023-06-14T01:48:12;18.70;66.70
29413;DHT22;16389;50.126;8.450;2023-06-14T01:50:38;18.70;67.00
29413;DHT22;16389;50.126;8.450;2023-06-14T01:53:08;18.70;66.80
29413;DHT22;16389;50.126;8.450;2023-06-14T01:55:34;18.70;67.50
29413;DHT22;16389;50.126;8.450;2023-06-14T01:58:06;18.60;67.60
29413;DHT22;16389;50.126;8.450;2023-06-14T02:00:32;18.60;68.00
29413;DHT22;16389;50.126;8.450;2023-06-14T02:02:57;18.50;67.70
29413;DHT22;16389;50.126;8.450;2023-06-14T02:05:24;18.40;67.70
29413;DHT22;16389;50.126;8.450;2023-06-14T02:07:49;18.40;68.20
29413;DHT22;16389;50.126;8.450;2023-06-14T02:10:16;18.30;68.90
29413;DHT22;16389;50.126;8.450;2023-06-14T02:12:43;18.20;68.00
29413;DHT22;16389;50.126;8.450;2023-06-14T02:15:09;18.20;69.10
29413;DHT22;16389;50.126;8.450;2023-06-14T02:17:35;18.20;69.30
29413;DHT22;16389;50.126;8.450;2023-06-14T02:20:01;18.20;69.70
29413;DHT22;16389;50.126;8.450;2023-06-14T02:22:30;18.00;70.10
29413;DHT22;16389;50.126;8.450;2023-06-14T02:24:56;18.00;71.00
29413;DHT22;16389;50.126;8.450;2023-06-14T02:27:22;17.90;71.10
29413;DHT22;16389;50.126;8.450;2023-06-14T02:29:47;17.80;71.80
29413;DHT22;16389;50.126;8.450;2023-06-14T02:32:13;17.80;72.00
29413;DHT22;16389;50.126;8.450;2023-06-14T02:34:39;17.70;72.30
29413;DHT22;16389;50.126;8.450;2023-06-14T02:37:06;17.60;72.50
29413;DHT22;16389;50.126;8.450;2023-06-14T02:39:32;17.50;73.60
29413;DHT22;16389;50.126;8.450;2023-06-14T02:41:58;17.40;73.60
29413;DHT22;16389;50.126;8.450;2023-06-14T02:44:27;17.40;74.60
29413;DHT22;16389;50.126;8.450;2023-06-14T02:46:56;17.40;73.70
29413;DHT22;16389;50.126;8.450;2023-06-14T02:49:22;17.40;73.30
29413;DHT22;16389;50.126;8.450;2023-06-14T02:51:48;17.40;74.00
29413;DHT22;16389;50.126;8.450;2023-06-14T02:54:13;17.40;74.50
29413;DHT22;16389;50.126;8.450;2023-06-14T02:56:39;17.40;74.40
29413;DHT22;16389;50.126;8.450;2023-06-14T02:59:06;17.30;74.50
29413;DHT22;16389;50.126;8.450;2023-06-14T03:01:32;17.30;74.50
29413;DHT22;16389;50.126;8.450;2023-06-14T03:04:07;17.30;73.90
29413;DHT22;16389;50.126;8.450;2023-06-14T03:06:33;17.30;74.60
29413;DHT22;16389;50.126;8.450;2023-06-14T03:08:59;17.20;74.70
29413;DHT22;16389;50.126;8.450;2023-06-14T03:11:26;17.20;75.00
29413;DHT22;16389;50.126;8.450;2023-06-14T03:13:52;17.20;74.90
29413;DHT22;16389;50.126;8.450;2023-06-14T03:16:18;17.20;75.70
29413;DHT22;16389;50.126;8.450;2023-06-14T03:18:48;17.10;75.30
29413;DHT22;16389;50.126;8.450;2023-06-14T03:21:14;17.00;75.50
29413;DHT22;16389;50.126;8.450;2023-06-14T03:23:41;17.00;74.70
29413;DHT22;16389;50.126;8.450;2023-06-14T03:26:07;17.00;75.90
29413;DHT22;16389;50.126;8.450;2023-06-14T03:28:33;17.00;75.80
29413;DHT22;16389;50.126;8.450;2023-06-14T03:30:59;16.90;76.30
29413;DHT22;16389;50.126;8.450;2023-06-14T03:33:25;16.90;76.40
29413;DHT22;16389;50.126;8.450;2023-06-14T03:35:51;16.90;76.90
29413;DHT22;16389;50.126;8.450;2023-06-14T03:38:17;16.80;77.20
29413;DHT22;16389;50.126;8.450;2023-06-14T03:40:42;16.80;77.80
29413;DHT22;16389;50.126;8.450;2023-06-14T03:43:09;16.70;77.40
29413;DHT22;16389;50.126;8.450;2023-06-14T03:45:35;16.80;76.90
29413;DHT22;16389;50.126;8.450;2023-06-14T03:48:01;16.80;78.40
29413;DHT22;16389;50.126;8.450;2023-06-14T03:50:28;16.80;77.20
29413;DHT22;16389;50.126;8.450;2023-06-14T03:52:53;16.80;79.70
29413;DHT22;16389;50.126;8.450;2023-06-14T03:55:19;16.80;79.80
29413;DHT22;16389;50.126;8.450;2023-06-14T03:57:45;16.80;79.20
29413;DHT22;16389;50.126;8.450;2023-06-14T04:00:11;16.80;79.30
29413;DHT22;16389;50.126;8.450;2023-06-14T04:02:38;16.90;80.20
29413;DHT22;16389;50.126;8.450;2023-06-14T04:05:04;16.80;80.90
29413;DHT22;16389;50.126;8.450;2023-06-14T04:07:34;16.80;80.90
29413;DHT22;16389;50.126;8.450;2023-06-14T04:10:06;16.80;81.90
29413;DHT22;16389;50.126;8.450;2023-06-14T04:12:31;16.70;81.60
29413;DHT22;16389;50.126;8.450;2023-06-14T04:14:57;16.80;79.00
29413;DHT22;16389;50.126;8.450;2023-06-14T04:17:23;16.90;80.70
29413;DHT22;16389;50.126;8.450;2023-06-14T04:19:48;16.90;81.00
29413;DHT22;16389;50.126;8.450;2023-06-14T04:22:14;17.00;81.00
29413;DHT22;16389;50.126;8.450;2023-06-14T04:24:39;17.00;80.90
29413;DHT22;16389;50.126;8.450;2023-06-14T04:27:08;17.00;81.00
29413;DHT22;16389;50.126;8.450;2023-06-14T04:29:33;17.10;80.90
29413;DHT22;16389;50.126;8.450;2023-06-14T04:31:59;17.10;81.60
29413;DHT22;16389;50.126;8.450;2023-06-14T04:34:28;17.20;80.40
29413;DHT22;16389;50.126;8.450;2023-06-14T04:36:59;17.20;81.00
29413;DHT22;16389;50.126;8.450;2023-06-14T04:39:26;17.30;81.40
29413;DHT22;16389;50.126;8.450;2023-06-14T04:41:53;17.40;81.30
29413;DHT22;16389;50.126;8.450;2023-06-14T04:44:23;17.40;80.50
29413;DHT22;16389;50.126;8.450;2023-06-14T04:46:56;17.50;79.40
29413;DHT22;16389;50.126;8.450;2023-06-14T04:49:21;17.50;77.70
29413;DHT22;16389;50.126;8.450;2023-06-14T04:51:49;17.60;76.40
29413;DHT22;16389;50.126;8.450;2023-06-14T04:54:23;17.60;76.70
29413;DHT22;16389;50.126;8.450;2023-06-14T04:56:50;17.70;75.00
29413;DHT22;16389;50.126;8.450;2023-06-14T04:59:16;17.80;73.90
29413;DHT22;16389;50.126;8.450;2023-06-14T05:01:42;17.80;74.80
29413;DHT22;16389;50.126;8.450;2023-06-14T05:04:13;17.90;74.30
29413;DHT22;16389;50.126;8.450;2023-06-14T05:06:39;18.00;74.50
29413;DHT22;16389;50.126;8.450;2023-06-14T05:09:04;18.00;74.70
29413;DHT22;16389;50.126;8.450;2023-06-14T05:11:30;18.00;74.50
29413;DHT22;16389;50.126;8.450;2023-06-14T05:13:56;18.10;73.90
29413;DHT22;16389;50.126;8.450;2023-06-14T05:16:23;18.10;72.90
29413;DHT22;16389;50.126;8.450;2023-06-14T05:18:51;18.20;73.80
29413;DHT22;16389;50.126;8.450;2023-06-14T05:21:17;18.20;74.20
29413;DHT22;16389;50.126;8.450;2023-06-14T05:23:46;18.20;73.70
29413;DHT22;16389;50.126;8.450;2023-06-14T05:26:12;18.30;72.60
29413;DHT22;16389;50.126;8.450;2023-06-14T05:28:37;18.30;73.40
29413;DHT22;16389;50.126;8.450;2023-06-14T05:31:03;18.40;72.60
29413;DHT22;16389;50.126;8.450;2023-06-14T05:33:29;18.40;72.40
29413;DHT22;16389;50.126;8.450;2023-06-14T05:35:54;18.50;72.50
29413;DHT22;16389;50.126;8.450;2023-06-14T05:38:21;18.50;71.90
29413;DHT22;16389;50.126;8.450;2023-06-14T05:40:46;18.50;72.50
29413;DHT22;16389;50.126;8.450;2023-06-14T05:43:12;18.50;73.30
29413;DHT22;16389;50.126;8.450;2023-06-14T05:45:38;18.50;72.50
29413;DHT22;16389;50.126;8.450;2023-06-14T05:48:03;18.60;73.00
29413;DHT22;16389;50.126;8.450;2023-06-14T05:50:29;18.60;72.80
29413;DHT22;16389;50.126;8.450;2023-06-14T05:52:55;18.60;73.60
29413;DHT22;16389;50.126;8.450;2023-06-14T05:55:21;18.70;74.30
29413;DHT22;16389;50.126;8.450;2023-06-14T05:57:47;18.70;73.80
29413;DHT22;16389;50.126;8.450;2023-06-14T06:00:14;18.70;73.50
29413;DHT22;16389;50.126;8.450;2023-06-14T06:02:44;18.80;74.40
29413;DHT22;16389;50.126;8.450;2023-06-14T06:05:10;18.80;73.60
29413;DHT22;16389;50.126;8.450;2023-06-14T06:07:37;18.90;73.70
29413;DHT22;16389;50.126;8.450;2023-06-14T06:10:03;18.80;73.70
29413;DHT22;16389;50.126;8.450;2023-06-14T06:12:30;18.90;74.90
29413;DHT22;16389;50.126;8.450;2023-06-14T06:14:56;19.00;74.40
29413;DHT22;16389;50.126;8.450;2023-06-14T06:17:22;19.10;74.20
29413;DHT22;16389;50.126;8.450;2023-06-14T06:19:47;19.20;74.00
29413;DHT22;16389;50.126;8.450;2023-06-14T06:22:13;19.20;74.00
29413;DHT22;16389;50.126;8.450;2023-06-14T06:24:38;19.30;74.10
29413;DHT22;16389;50.126;8.450;2023-06-14T06:27:04;19.30;72.60
29413;DHT22;16389;50.126;8.450;2023-06-14T06:29:30;19.30;73.00
29413;DHT22;16389;50.126;8.450;2023-06-14T06:31:56;19.30;73.50
29413;DHT22;16389;50.126;8.450;2023-06-14T06:34:21;19.40;73.10
29413;DHT22;16389;50.126;8.450;2023-06-14T06:36:47;19.40;73.80
29413;DHT22;16389;50.126;8.450;2023-06-14T06:39:13;19.50;73.20
29413;DHT22;16389;50.126;8.450;2023-06-14T06:41:40;19.60;73.20
29413;DHT22;16389;50.126;8.450;2023-06-14T06:44:06;19.70;72.50
29413;DHT22;16389;50.126;8.450;2023-06-14T06:46:33;19.70;71.70
29413;DHT22;16389;50.126;8.450;2023-06-14T06:48:59;19.70;72.00
29413;DHT22;16389;50.126;8.450;2023-06-14T06:51:25;19.70;72.00
29413;DHT22;16389;50.126;8.450;2023-06-14T06:53:54;19.80;72.10
29413;DHT22;16389;50.126;8.450;2023-06-14T06:56:21;19.80;72.10
29413;DHT22;16389;50.126;8.450;2023-06-14T06:58:49;19.90;73.00
29413;DHT22;16389;50.126;8.450;2023-06-14T07:01:15;20.00;72.00
29413;DHT22;16389;50.126;8.450;2023-06-14T07:03:41;20.10;72.40
29413;DHT22;16389;50.126;8.450;2023-06-14T07:06:06;20.20;71.60
29413;DHT22;16389;50.126;8.450;2023-06-14T07:08:32;20.30;71.90
29413;DHT22;16389;50.126;8.450;2023-06-14T07:10:58;20.40;71.70
29413;DHT22;16389;50.126;8.450;2023-06-14T07:13:23;20.50;71.60
29413;DHT22;16389;50.126;8.450;2023-06-14T07:15:49;20.60;72.20
29413;DHT22;16389;50.126;8.450;2023-06-14T07:18:15;20.70;69.90
29413;DHT22;16389;50.126;8.450;2023-06-14T07:20:41;20.70;70.70
29413;DHT22;16389;50.126;8.450;2023-06-14T07:23:08;20.70;69.80
29413;DHT22;16389;50.126;8.450;2023-06-14T07:25:33;20.70;70.10
29413;DHT22;16389;50.126;8.450;2023-06-14T07:27:59;20.70;69.80
29413;DHT22;16389;50.126;8.450;2023-06-14T07:30:24;20.80;70.50
29413;DHT22;16389;50.126;8.450;2023-06-14T07:32:53;20.80;70.00
29413;DHT22;16389;50.126;8.450;2023-06-14T07:35:18;21.00;69.90
29413;DHT22;16389;50.126;8.450;2023-06-14T07:37:44;21.10;70.00
29413;DHT22;16389;50.126;8.450;2023-06-14T07:40:11;21.10;69.50
29413;DHT22;16389;50.126;8.450;2023-06-14T07:42:36;21.10;68.90
29413;DHT22;16389;50.126;8.450;2023-06-14T07:45:05;21.30;69.30
29413;DHT22;16389;50.126;8.450;2023-06-14T07:47:32;21.40;68.40
29413;DHT22;16389;50.126;8.450;2023-06-14T07:49:57;21.50;68.30
29413;DHT22;16389;50.126;8.450;2023-06-14T07:52:23;21.70;69.20
29413;DHT22;16389;50.126;8.450;2023-06-14T07:54:49;21.90;67.80
29413;DHT22;16389;50.126;8.450;2023-06-14T07:57:14;21.90;66.90
29413;DHT22;16389;50.126;8.450;2023-06-14T07:59:40;21.90;68.60
29413;DHT22;16389;50.126;8.450;2023-06-14T08:02:06;22.00;67.40
29413;DHT22;16389;50.126;8.450;2023-06-14T08:04:32;22.10;66.70
29413;DHT22;16389;50.126;8.450;2023-06-14T08:06:59;22.20;67.20
29413;DHT22;16389;50.126;8.450;2023-06-14T08:09:24;22.40;66.50
29413;DHT22;16389;50.126;8.450;2023-06-14T08:11:50;22.40;66.20
29413;DHT22;16389;50.126;8.450;2023-06-14T08:14:16;22.50;65.90
29413;DHT22;16389;50.126;8.450;2023-06-14T08:16:42;22.60;65.10
29413;DHT22;16389;50.126;8.450;2023-06-14T08:19:08;22.80;65.30
29413;DHT22;16389;50.126;8.450;2023-06-14T08:21:33;23.00;66.20
29413;DHT22;16389;50.126;8.450;2023-06-14T08:24:01;23.10;63.80
29413;DHT22;16389;50.126;8.450;2023-06-14T08:26:27;23.20;63.70
29413;DHT22;16389;50.126;8.450;2023-06-14T08:28:57;23.30;63.90
29413;DHT22;16389;50.126;8.450;2023-06-14T08:31:23;23.50;64.20
29413;DHT22;16389;50.126;8.450;2023-06-14T08:33:49;23.70;63.70
29413;DHT22;16389;50.126;8.450;2023-06-14T08:36:15;23.80;62.80
29413;DHT22;16389;50.126;8.450;2023-06-14T08:38:40;24.00;60.00
29413;DHT22;16389;50.126;8.450;2023-06-14T08:41:06;24.10;61.40
29413;DHT22;16389;50.126;8.450;2023-06-14T08:43:33;24.30;61.00
29413;DHT22;16389;50.126;8.450;2023-06-14T08:46:02;24.50;60.20
29413;DHT22;16389;50.126;8.450;2023-06-14T08:48:28;24.60;61.00
29413;DHT22;16389;50.126;8.450;2023-06-14T08:50:56;24.50;60.70
29413;DHT22;16389;50.126;8.450;2023-06-14T08:53:37;24.70;60.60
29413;DHT22;16389;50.126;8.450;2023-06-14T08:56:08;24.90;59.10
29413;DHT22;16389;50.126;8.450;2023-06-14T08:58:42;25.10;58.60
29413;DHT22;16389;50.126;8.450;2023-06-14T09:01:11;25.30;58.10
29413;DHT22;16389;50.126;8.450;2023-06-14T09:03:42;25.50;57.70
29413;DHT22;16389;50.126;8.450;2023-06-14T09:06:09;25.70;56.30
29413;DHT22;16389;50.126;8.450;2023-06-14T09:08:43;25.70;57.90
29413;DHT22;16389;50.126;8.450;2023-06-14T09:11:11;26.00;56.60
29413;DHT22;16389;50.126;8.450;2023-06-14T09:13:38;26.10;56.40
29413;DHT22;16389;50.126;8.450;2023-06-14T09:16:04;26.30;55.10
29413;DHT22;16389;50.126;8.450;2023-06-14T09:18:47;26.40;54.90
29413;DHT22;16389;50.126;8.450;2023-06-14T09:21:14;26.50;55.10
29413;DHT22;16389;50.126;8.450;2023-06-14T09:23:47;26.70;55.40
29413;DHT22;16389;50.126;8.450;2023-06-14T09:26:15;26.90;54.60
29413;DHT22;16389;50.126;8.450;2023-06-14T09:28:42;27.30;53.10
29413;DHT22;16389;50.126;8.450;2023-06-14T09:31:10;27.40;53.30
29413;DHT22;16389;50.126;8.450;2023-06-14T09:33:36;27.50;53.50
29413;DHT22;16389;50.126;8.450;2023-06-14T09:36:03;27.70;52.70
29413;DHT22;16389;50.126;8.450;2023-06-14T09:38:29;27.90;51.70
29413;DHT22;16389;50.126;8.450;2023-06-14T09:40:58;28.20;51.90
29413;DHT22;16389;50.126;8.450;2023-06-14T09:43:24;28.60;50.30
29413;DHT22;16389;50.126;8.450;2023-06-14T09:45:53;28.70;50.20
29413;DHT22;16389;50.126;8.450;2023-06-14T09:48:19;29.00;50.00
29413;DHT22;16389;50.126;8.450;2023-06-14T09:50:46;28.90;50.40
29413;DHT22;16389;50.126;8.450;2023-06-14T09:53:13;29.20;50.10
29413;DHT22;16389;50.126;8.450;2023-06-14T09:55:41;29.50;49.30
29413;DHT22;16389;50.126;8.450;2023-06-14T09:58:08;29.80;48.90
29413;DHT22;16389;50.126;8.450;2023-06-14T10:00:35;30.40;48.10
29413;DHT22;16389;50.126;8.450;2023-06-14T10:03:25;30.50;48.20
29413;DHT22;16389;50.126;8.450;2023-06-14T10:05:54;30.70;48.50
29413;DHT22;16389;50.126;8.450;2023-06-14T10:08:24;31.50;47.70
29413;DHT22;16389;50.126;8.450;2023-06-14T10:10:51;31.70;47.50
29413;DHT22;16389;50.126;8.450;2023-06-14T10:13:17;31.60;46.80
29413;DHT22;16389;50.126;8.450;2023-06-14T10:21:58;31.90;47.10
29413;DHT22;16389;50.126;8.450;2023-06-14T10:24:32;32.30;46.30
29413;DHT22;16389;50.126;8.450;2023-06-14T10:26:59;33.00;45.30
29413;DHT22;16389;50.126;8.450;2023-06-14T10:29:25;33.00;45.30
29413;DHT22;16389;50.126;8.450;2023-06-14T10:31:57;33.60;44.40
29413;DHT22;16389;50.126;8.450;2023-06-14T10:34:28;32.90;45.90
29413;DHT22;16389;50.126;8.450;2023-06-14T10:37:06;33.30;46.00
29413;DHT22;16389;50.126;8.450;2023-06-14T10:39:37;33.50;46.10
29413;DHT22;16389;50.126;8.450;2023-06-14T10:42:03;33.80;44.00
29413;DHT22;16389;50.126;8.450;2023-06-14T10:44:31;34.20;44.70
29413;DHT22;16389;50.126;8.450;2023-06-14T10:46:59;35.00;43.30
29413;DHT22;16389;50.126;8.450;2023-06-14T10:50:04;35.20;43.50
29413;DHT22;16389;50.126;8.450;2023-06-14T10:52:34;35.40;43.10
29413;DHT22;16389;50.126;8.450;2023-06-14T10:55:06;35.40;43.40
29413;DHT22;16389;50.126;8.450;2023-06-14T10:57:50;35.50;42.40
29413;DHT22;16389;50.126;8.450;2023-06-14T11:00:20;35.70;42.10
29413;DHT22;16389;50.126;8.450;2023-06-14T11:05:53;36.40;42.30
29413;DHT22;16389;50.126;8.450;2023-06-14T11:11:22;36.50;41.30
29413;DHT22;16389;50.126;8.450;2023-06-14T11:13:51;37.10;41.10
29413;DHT22;16389;50.126;8.450;2023-06-14T11:16:17;37.00;40.60
29413;DHT22;16389;50.126;8.450;2023-06-14T11:18:46;37.20;41.00
29413;DHT22;16389;50.126;8.450;2023-06-14T11:21:16;37.60;40.70
29413;DHT22;16389;50.126;8.450;2023-06-14T11:23:42;38.00;39.90
29413;DHT22;16389;50.126;8.450;2023-06-14T11:26:08;37.80;41.10
29413;DHT22;16389;50.126;8.450;2023-06-14T11:28:40;37.80;41.10
29413;DHT22;16389;50.126;8.450;2023-06-14T11:31:07;37.80;41.00
29413;DHT22;16389;50.126;8.450;2023-06-14T11:33:33;37.90;40.40
29413;DHT22;16389;50.126;8.450;2023-06-14T11:36:02;38.20;39.80
29413;DHT22;16389;50.126;8.450;2023-06-14T11:38:28;38.30;39.80
29413;DHT22;16389;50.126;8.450;2023-06-14T11:40:53;38.30;39.70
29413;DHT22;16389;50.126;8.450;2023-06-14T11:43:25;36.70;40.40
29413;DHT22;16389;50.126;8.450;2023-06-14T11:45:50;35.70;42.10
29413;DHT22;16389;50.126;8.450;2023-06-14T11:48:16;35.80;42.50
29413;DHT22;16389;50.126;8.450;2023-06-14T11:50:42;36.60;42.40
29413;DHT22;16389;50.126;8.450;2023-06-14T11:53:07;37.50;40.70
29413;DHT22;16389;50.126;8.450;2023-06-14T11:55:38;38.10;40.20
29413;DHT22;16389;50.126;8.450;2023-06-14T11:58:06;38.80;39.10
29413;DHT22;16389;50.126;8.450;2023-06-14T12:00:31;38.80;39.40
29413;DHT22;16389;50.126;8.450;2023-06-14T12:02:57;39.00;38.50
29413;DHT22;16389;50.126;8.450;2023-06-14T12:05:23;37.50;39.00
29413;DHT22;16389;50.126;8.450;2023-06-14T12:07:50;35.10;40.60
29413;DHT22;16389;50.126;8.450;2023-06-14T12:10:18;33.50;43.40
29413;DHT22;16389;50.126;8.450;2023-06-14T12:12:45;32.30;45.30
29413;DHT22;16389;50.126;8.450;2023-06-14T12:15:10;31.80;45.50
29413;DHT22;16389;50.126;8.450;2023-06-14T12:17:38;30.90;46.40
29413;DHT22;16389;50.126;8.450;2023-06-14T12:20:09;30.00;48.00
29413;DHT22;16389;50.126;8.450;2023-06-14T12:22:36;29.30;49.00
29413;DHT22;16389;50.126;8.450;2023-06-14T12:25:04;28.80;50.20
29413;DHT22;16389;50.126;8.450;2023-06-14T12:27:29;28.70;50.90
29413;DHT22;16389;50.126;8.450;2023-06-14T12:30:03;28.80;50.60
29413;DHT22;16389;50.126;8.450;2023-06-14T12:32:29;29.90;49.50
29413;DHT22;16389;50.126;8.450;2023-06-14T12:34:55;31.30;47.80
29413;DHT22;16389;50.126;8.450;2023-06-14T12:37:20;32.50;45.30
29413;DHT22;16389;50.126;8.450;2023-06-14T12:39:47;34.10;43.90
29413;DHT22;16389;50.126;8.450;2023-06-14T12:42:12;35.30;43.20
29413;DHT22;16389;50.126;8.450;2023-06-14T12:44:39;36.30;41.90
29413;DHT22;16389;50.126;8.450;2023-06-14T12:47:06;36.60;41.20
29413;DHT22;16389;50.126;8.450;2023-06-14T12:49:33;36.90;39.70
29413;DHT22;16389;50.126;8.450;2023-06-14T12:51:58;37.70;38.90
29413;DHT22;16389;50.126;8.450;2023-06-14T12:54:24;38.00;39.40
29413;DHT22;16389;50.126;8.450;2023-06-14T12:56:51;38.60;38.50
29413;DHT22;16389;50.126;8.450;2023-06-14T12:59:18;39.40;37.70
29413;DHT22;16389;50.126;8.450;2023-06-14T13:01:44;38.90;37.20
29413;DHT22;16389;50.126;8.450;2023-06-14T13:04:10;38.30;37.20
29413;DHT22;16389;50.126;8.450;2023-06-14T13:06:36;38.40;38.40
29413;DHT22;16389;50.126;8.450;2023-06-14T13:09:02;38.40;37.70
29413;DHT22;16389;50.126;8.450;2023-06-14T13:11:29;38.60;38.10
29413;DHT22;16389;50.126;8.450;2023-06-14T13:13:55;38.20;38.90
29413;DHT22;16389;50.126;8.450;2023-06-14T13:16:21;37.70;39.50
29413;DHT22;16389;50.126;8.450;2023-06-14T13:18:47;37.20;38.80
29413;DHT22;16389;50.126;8.450;2023-06-14T13:21:12;36.00;38.80
29413;DHT22;16389;50.126;8.450;2023-06-14T13:23:38;34.50;39.20
29413;DHT22;16389;50.126;8.450;2023-06-14T13:26:04;32.80;42.60
29413;DHT22;16389;50.126;8.450;2023-06-14T13:28:29;31.70;42.90
29413;DHT22;16389;50.126;8.450;2023-06-14T13:30:57;30.70;45.40
29413;DHT22;16389;50.126;8.450;2023-06-14T13:33:22;29.90;45.00
29413;DHT22;16389;50.126;8.450;2023-06-14T13:35:49;29.80;46.30
29413;DHT22;16389;50.126;8.450;2023-06-14T13:38:15;29.80;46.50
29413;DHT22;16389;50.126;8.450;2023-06-14T13:40:41;29.70;46.60
29413;DHT22;16389;50.126;8.450;2023-06-14T13:43:06;29.70;46.50
29413;DHT22;16389;50.126;8.450;2023-06-14T13:45:32;29.40;46.50
29413;DHT22;16389;50.126;8.450;2023-06-14T13:47:58;29.00;47.60
29413;DHT22;16389;50.126;8.450;2023-06-14T13:50:23;28.70;47.70
29413;DHT22;16389;50.126;8.450;2023-06-14T13:52:49;28.30;48.70
29413;DHT22;16389;50.126;8.450;2023-06-14T13:55:14;28.10;49.10
29413;DHT22;16389;50.126;8.450;2023-06-14T13:57:40;28.00;48.80
29413;DHT22;16389;50.126;8.450;2023-06-14T14:00:06;28.00;48.50
29413;DHT22;16389;50.126;8.450;2023-06-14T14:02:32;28.00;48.40
29413;DHT22;16389;50.126;8.450;2023-06-14T14:04:57;28.60;48.60
29413;DHT22;16389;50.126;8.450;2023-06-14T14:07:23;29.10;47.90
29413;DHT22;16389;50.126;8.450;2023-06-14T14:09:49;29.50;48.60
29413;DHT22;16389;50.126;8.450;2023-06-14T14:12:14;29.80;48.30
29413;DHT22;16389;50.126;8.450;2023-06-14T14:14:40;30.10;47.60
29413;DHT22;16389;50.126;8.450;2023-06-14T14:17:06;30.30;47.00
29413;DHT22;16389;50.126;8.450;2023-06-14T14:19:32;29.90;46.60
29413;DHT22;16389;50.126;8.450;2023-06-14T14:21:58;29.40;46.70
29413;DHT22;16389;50.126;8.450;2023-06-14T14:24:24;28.90;48.60
29413;DHT22;16389;50.126;8.450;2023-06-14T14:26:51;28.90;49.30
29413;DHT22;16389;50.126;8.450;2023-06-14T14:29:19;28.70;48.80
29413;DHT22;16389;50.126;8.450;2023-06-14T14:31:45;28.60;49.30
29413;DHT22;16389;50.126;8.450;2023-06-14T14:34:10;28.90;49.70
29413;DHT22;16389;50.126;8.450;2023-06-14T14:36:36;28.80;50.00
29413;DHT22;16389;50.126;8.450;2023-06-14T14:39:03;28.70;49.70
29413;DHT22;16389;50.126;8.450;2023-06-14T14:41:29;28.70;49.40
29413;DHT22;16389;50.126;8.450;2023-06-14T14:43:55;28.60;49.30
29413;DHT22;16389;50.126;8.450;2023-06-14T14:46:20;28.40;49.30
29413;DHT22;16389;50.126;8.450;2023-06-14T14:48:46;28.20;48.60
29413;DHT22;16389;50.126;8.450;2023-06-14T14:51:12;28.00;48.30
29413;DHT22;16389;50.126;8.450;2023-06-14T14:53:37;28.00;49.90
29413;DHT22;16389;50.126;8.450;2023-06-14T14:56:03;28.10;49.80
29413;DHT22;16389;50.126;8.450;2023-06-14T14:58:29;28.20;50.10
29413;DHT22;16389;50.126;8.450;2023-06-14T15:00:54;28.60;49.20
29413;DHT22;16389;50.126;8.450;2023-06-14T15:03:20;28.80;49.00
29413;DHT22;16389;50.126;8.450;2023-06-14T15:05:47;28.70;48.10
29413;DHT22;16389;50.126;8.450;2023-06-14T15:08:12;28.60;48.50
29413;DHT22;16389;50.126;8.450;2023-06-14T15:10:38;28.50;49.00
29413;DHT22;16389;50.126;8.450;2023-06-14T15:13:08;28.30;49.10
29413;DHT22;16389;50.126;8.450;2023-06-14T15:15:35;28.10;50.00
29413;DHT22;16389;50.126;8.450;2023-06-14T15:18:01;27.70;51.10
29413;DHT22;16389;50.126;8.450;2023-06-14T15:20:26;27.50;50.80
29413;DHT22;16389;50.126;8.450;2023-06-14T15:22:53;27.70;50.60
29413;DHT22;16389;50.126;8.450;2023-06-14T15:25:21;27.60;50.70
29413;DHT22;16389;50.126;8.450;2023-06-14T15:27:46;27.50;50.30
29413;DHT22;16389;50.126;8.450;2023-06-14T15:30:12;27.50;50.30
29413;DHT22;16389;50.126;8.450;2023-06-14T15:32:38;27.50;51.50
29413;DHT22;16389;50.126;8.450;2023-06-14T15:35:04;27.50;51.30
29413;DHT22;16389;50.126;8.450;2023-06-14T15:37:30;27.60;51.60
29413;DHT22;16389;50.126;8.450;2023-06-14T15:39:56;27.50;51.10
29413;DHT22;16389;50.126;8.450;2023-06-14T15:42:21;27.70;51.80
29413;DHT22;16389;50.126;8.450;2023-06-14T15:44:47;27.70;51.40
29413;DHT22;16389;50.126;8.450;2023-06-14T15:47:13;28.00;51.00
29413;DHT22;16389;50.126;8.450;2023-06-14T15:49:39;27.80;52.70